< < Back
Terminal Aerodrome Forecast


Current Version              Previous Versions:   1  2  3  4  5  6  7  8  9  

Terminal Aerodrome Forecast

482
FTUS42 KGSP 221700
TAFHKY
TAF
KHKY 221724Z 2218/2318 03005KT P6SM FEW250
     FM231500 04010KT P6SM FEW060=



Latest METAR

500
SAUS70 KWBC 230200 RRN
MTRHKY
METAR KHKY 230153Z AUTO 03005KT 10SM CLR 17/13 A3017 RMK AO2 SLP198
T01720128


USA.gov is the U.S. government's official web portal to all federal, state and local government web resources and services.